Time;durP1;ratioP1;P1;durP2;ratioP2;P2;SDS_P1;SDS_P2;PMS_P1;PMS_P2;Temp;Humidity;BMP_temperature;BMP_pressure;BME280_temperature;BME280_humidity;BME280_pressure;Samples;Min_cycle;Max_cycle;Signal;HPM_P1;HPM_P2
2023/11/15 00:01:58;;;;;;;21.20;4.63;;;10.10;99.90;;;;;;5024017;28;20216;-57
2023/11/15 00:04:26;;;;;;;16.67;3.50;;;10.00;99.90;;;;;;5025371;28;20209;-59
2023/11/15 00:06:55;;;;;;;18.87;4.43;;;10.10;99.90;;;;;;5026181;28;20245;-58
2023/11/15 00:09:23;;;;;;;11.30;3.40;;;10.10;99.90;;;;;;5021713;28;20719;-58
2023/11/15 00:11:51;;;;;;;19.63;3.30;;;10.10;99.90;;;;;;5023343;28;20237;-58
2023/11/15 00:14:20;;;;;;;23.77;3.83;;;10.00;99.90;;;;;;5022788;28;20221;-58
2023/11/15 00:16:48;;;;;;;19.30;3.80;;;10.00;99.90;;;;;;5021500;28;20223;-58
2023/11/15 00:19:20;;;;;;;17.73;3.50;;;9.90;99.90;;;;;;5021658;28;20190;-57
2023/11/15 00:21:49;;;;;;;18.90;3.60;;;9.80;99.90;;;;;;5017774;28;20225;-57
2023/11/15 00:24:18;;;;;;;19.63;4.17;;;9.80;99.90;;;;;;5019422;28;20216;-58
2023/11/15 00:26:46;;;;;;;17.63;3.60;;;9.80;99.90;;;;;;5022156;28;20228;-57
2023/11/15 00:29:15;;;;;;;28.33;4.53;;;9.70;99.90;;;;;;5022013;28;20228;-58
2023/11/15 00:31:43;;;;;;;21.30;3.80;;;9.70;99.90;;;;;;5021782;28;20655;-57
2023/11/15 00:34:11;;;;;;;21.37;3.77;;;9.70;99.90;;;;;;5022662;28;20683;-57
2023/11/15 00:36:45;;;;;;;17.47;4.17;;;9.70;99.90;;;;;;5016147;28;20672;-58
2023/11/15 00:39:13;;;;;;;23.17;3.97;;;9.60;99.90;;;;;;5020664;28;20221;-57
2023/11/15 00:41:41;;;;;;;18.97;3.33;;;9.60;99.90;;;;;;5028624;28;20234;-58
2023/11/15 00:44:10;;;;;;;20.57;3.53;;;9.60;99.90;;;;;;5018545;28;20885;-57
2023/11/15 00:46:38;;;;;;;25.17;3.80;;;9.60;99.90;;;;;;5021709;28;20301;-58
2023/11/15 00:49:06;;;;;;;22.90;4.10;;;9.60;99.90;;;;;;5024168;28;20632;-58
2023/11/15 00:51:35;;;;;;;21.53;3.30;;;9.60;99.90;;;;;;5025248;28;20217;-58
2023/11/15 00:54:06;;;;;;;23.97;3.73;;;9.60;99.90;;;;;;5023599;28;20221;-58
2023/11/15 00:56:34;;;;;;;19.63;3.70;;;9.60;99.90;;;;;;5023251;28;20237;-58
2023/11/15 00:59:02;;;;;;;31.60;4.30;;;9.60;99.90;;;;;;5025833;28;20222;-58
2023/11/15 01:01:31;;;;;;;21.40;3.63;;;9.70;99.90;;;;;;5027652;28;20623;-59
2023/11/15 01:03:59;;;;;;;17.87;3.83;;;9.70;99.90;;;;;;5029491;28;20224;-58
2023/11/15 01:06:27;;;;;;;19.43;3.70;;;9.70;99.90;;;;;;5024813;28;20275;-58
2023/11/15 01:08:56;;;;;;;18.23;3.93;;;9.70;99.90;;;;;;5027960;28;20218;-59
2023/11/15 01:11:27;;;;;;;26.10;4.07;;;9.70;99.90;;;;;;5024289;28;20267;-59
2023/11/15 01:13:55;;;;;;;19.27;3.97;;;9.70;99.90;;;;;;5024422;28;20294;-58
2023/11/15 01:16:24;;;;;;;27.17;4.07;;;9.70;99.90;;;;;;5026386;28;20200;-58
2023/11/15 01:18:53;;;;;;;21.27;3.40;;;9.70;99.90;;;;;;5023760;28;20225;-58
2023/11/15 01:21:22;;;;;;;17.20;3.50;;;9.70;99.90;;;;;;5024944;28;20650;-58
2023/11/15 01:23:50;;;;;;;18.13;3.63;;;9.70;99.90;;;;;;5025305;28;20232;-59
2023/11/15 01:26:21;;;;;;;22.70;4.03;;;9.70;99.90;;;;;;5025928;28;20267;-58
2023/11/15 01:28:51;;;;;;;25.10;4.00;;;9.70;99.90;;;;;;5028313;28;20204;-58
2023/11/15 01:31:19;;;;;;;22.60;4.30;;;9.70;99.90;;;;;;5049399;28;20193;-57
2023/11/15 01:33:48;;;;;;;26.43;4.37;;;9.70;99.90;;;;;;5026232;28;20229;-59
2023/11/15 01:36:16;;;;;;;29.43;4.30;;;9.70;99.90;;;;;;5026273;28;20217;-58
2023/11/15 01:38:44;;;;;;;25.47;3.77;;;9.70;99.90;;;;;;5025825;28;20225;-58
2023/11/15 01:41:12;;;;;;;21.37;4.00;;;9.70;99.90;;;;;;5027952;28;20233;-58
2023/11/15 01:43:40;;;;;;;25.23;4.17;;;9.70;99.90;;;;;;5028224;28;20652;-58
2023/11/15 01:46:12;;;;;;;31.20;4.17;;;9.60;99.90;;;;;;5025335;28;20313;-58
2023/11/15 01:48:40;;;;;;;19.10;3.60;;;9.60;99.90;;;;;;5030270;28;20213;-58
2023/11/15 01:51:10;;;;;;;29.23;4.03;;;9.60;99.90;;;;;;5021009;28;20220;-58
2023/11/15 01:53:39;;;;;;;28.33;3.60;;;9.60;99.90;;;;;;5028976;28;20312;-58
2023/11/15 01:56:09;;;;;;;31.53;4.63;;;9.60;99.90;;;;;;5028366;28;20225;-58
2023/11/15 01:58:37;;;;;;;20.60;3.43;;;9.60;99.90;;;;;;5027460;28;20186;-59
2023/11/15 02:01:08;;;;;;;28.93;3.70;;;9.60;99.90;;;;;;5028691;28;20284;-58
2023/11/15 02:03:38;;;;;;;17.30;3.97;;;9.50;99.90;;;;;;5025508;28;20217;-58
2023/11/15 02:06:07;;;;;;;22.90;3.63;;;9.50;99.90;;;;;;5022724;28;20233;-58
2023/11/15 02:08:36;;;;;;;23.90;4.20;;;9.50;99.90;;;;;;5022889;28;20292;-58
2023/11/15 02:11:05;;;;;;;18.83;4.10;;;9.60;99.90;;;;;;5026776;28;20271;-58
2023/11/15 02:13:33;;;;;;;20.23;4.13;;;9.60;99.90;;;;;;5023777;28;20209;-58
2023/11/15 02:16:01;;;;;;;20.07;3.60;;;9.60;99.90;;;;;;5022538;28;20233;-58
2023/11/15 02:18:30;;;;;;;15.47;3.83;;;9.60;99.90;;;;;;5027176;28;20325;-58
2023/11/15 02:20:59;;;;;;;16.13;3.77;;;9.60;99.90;;;;;;5022288;28;20221;-58
2023/11/15 02:23:30;;;;;;;15.47;3.67;;;9.60;99.90;;;;;;5029536;28;20229;-58
2023/11/15 02:26:00;;;;;;;20.27;3.57;;;9.60;99.90;;;;;;5025088;28;20606;-58
2023/11/15 02:28:28;;;;;;;19.57;3.40;;;9.70;99.90;;;;;;5025645;28;20204;-59
2023/11/15 02:30:56;;;;;;;19.13;3.40;;;9.70;99.90;;;;;;5021048;28;20581;-57
2023/11/15 02:33:24;;;;;;;20.43;4.27;;;9.80;99.90;;;;;;5023713;28;20248;-58
2023/11/15 02:35:53;;;;;;;20.23;4.40;;;9.80;99.90;;;;;;5023617;28;20628;-58
2023/11/15 02:38:21;;;;;;;16.30;3.03;;;9.90;99.90;;;;;;5019265;28;20272;-58
2023/11/15 02:40:50;;;;;;;25.70;3.63;;;9.90;99.90;;;;;;5022430;28;20194;-58
2023/11/15 02:43:20;;;;;;;19.67;3.33;;;9.90;99.90;;;;;;5025741;28;20194;-59
2023/11/15 02:45:48;;;;;;;17.03;4.00;;;9.90;99.90;;;;;;5022225;28;20218;-58
2023/11/15 02:48:17;;;;;;;24.33;3.47;;;9.90;99.90;;;;;;5022970;28;20822;-58
2023/11/15 02:50:45;;;;;;;19.50;3.17;;;9.90;99.90;;;;;;5020785;28;20257;-58
2023/11/15 02:53:13;;;;;;;18.37;3.40;;;9.90;99.90;;;;;;5021349;28;20316;-58
2023/11/15 02:55:41;;;;;;;22.60;3.63;;;9.90;99.90;;;;;;5022845;28;20190;-58
2023/11/15 02:58:09;;;;;;;19.70;3.67;;;9.90;99.90;;;;;;5024206;28;20189;-58
2023/11/15 03:00:39;;;;;;;16.83;4.00;;;9.90;99.90;;;;;;5026733;28;20316;-58
2023/11/15 03:03:07;;;;;;;12.93;3.33;;;10.00;99.90;;;;;;5022035;28;20235;-58
2023/11/15 03:05:36;;;;;;;15.30;3.60;;;10.00;99.90;;;;;;5024498;28;20241;-58
2023/11/15 03:08:06;;;;;;;13.93;3.40;;;10.00;99.90;;;;;;5022940;28;20224;-58
2023/11/15 03:10:34;;;;;;;18.77;3.97;;;10.10;99.90;;;;;;5022908;28;20292;-58
2023/11/15 03:13:03;;;;;;;15.40;2.90;;;10.10;99.90;;;;;;5023358;28;20212;-57
2023/11/15 03:15:32;;;;;;;11.57;3.10;;;10.10;99.90;;;;;;5018552;28;20228;-57
2023/11/15 03:18:01;;;;;;;16.63;3.70;;;10.10;99.90;;;;;;5027007;28;20210;-56
2023/11/15 03:20:30;;;;;;;20.33;3.77;;;10.00;99.90;;;;;;5023244;28;20260;-58
2023/11/15 03:22:59;;;;;;;18.47;3.60;;;10.10;99.90;;;;;;5026322;28;20568;-57
2023/11/15 03:25:28;;;;;;;19.97;4.03;;;10.10;99.90;;;;;;5027456;28;20189;-58
2023/11/15 03:27:57;;;;;;;19.47;3.07;;;10.10;99.90;;;;;;5026564;28;20242;-58
2023/11/15 03:30:25;;;;;;;13.37;3.07;;;10.10;99.90;;;;;;5022066;28;20218;-58
2023/11/15 03:32:53;;;;;;;19.17;3.70;;;10.10;99.90;;;;;;5025621;28;20313;-58
2023/11/15 03:35:24;;;;;;;13.77;3.00;;;10.10;99.90;;;;;;5021340;28;20317;-58
2023/11/15 03:37:52;;;;;;;21.17;3.40;;;10.20;99.90;;;;;;5023417;28;20197;-58
2023/11/15 03:40:24;;;;;;;15.20;3.17;;;10.20;99.90;;;;;;5024685;28;20194;-58
2023/11/15 03:42:52;;;;;;;20.20;3.10;;;10.10;99.90;;;;;;5022912;28;20315;-58
2023/11/15 03:45:20;;;;;;;15.43;3.43;;;10.00;99.90;;;;;;5022733;28;20221;-57
2023/11/15 03:47:49;;;;;;;17.37;3.70;;;10.00;99.90;;;;;;5022638;28;20287;-57
2023/11/15 03:50:18;;;;;;;17.50;3.27;;;9.90;99.90;;;;;;5026785;28;20223;-57
2023/11/15 03:52:47;;;;;;;13.20;2.80;;;9.90;99.90;;;;;;5022665;28;20239;-56
2023/11/15 03:55:16;;;;;;;14.10;3.47;;;9.80;99.90;;;;;;5022023;28;20197;-58
2023/11/15 03:57:46;;;;;;;24.10;3.23;;;9.80;99.90;;;;;;5020283;28;20221;-57
2023/11/15 04:00:16;;;;;;;14.33;3.13;;;9.80;99.90;;;;;;5023230;28;20271;-58
2023/11/15 04:02:47;;;;;;;24.43;3.97;;;9.70;99.90;;;;;;5020399;28;20339;-58
2023/11/15 04:05:16;;;;;;;31.33;4.23;;;9.70;99.90;;;;;;5022405;28;20233;-58
2023/11/15 04:07:45;;;;;;;17.10;3.63;;;9.80;99.90;;;;;;5020429;28;20197;-56
2023/11/15 04:10:15;;;;;;;16.87;3.53;;;9.70;99.90;;;;;;5024790;28;20625;-59
2023/11/15 04:12:43;;;;;;;18.17;3.67;;;9.80;99.90;;;;;;5034810;28;20228;-59
2023/11/15 04:15:14;;;;;;;16.80;3.13;;;9.70;99.90;;;;;;5040640;28;20247;-58
2023/11/15 04:17:42;;;;;;;13.33;3.40;;;9.70;99.90;;;;;;5032391;28;20316;-59
2023/11/15 04:20:11;;;;;;;18.87;3.30;;;9.70;99.90;;;;;;5030132;28;20225;-58
2023/11/15 04:22:40;;;;;;;20.87;3.40;;;9.70;99.90;;;;;;5044953;28;20232;-57
2023/11/15 04:25:09;;;;;;;12.70;3.83;;;9.60;99.90;;;;;;5044828;28;20200;-59
2023/11/15 04:27:38;;;;;;;22.50;3.63;;;9.60;99.90;;;;;;5046853;28;20222;-59
2023/11/15 04:30:09;;;;;;;13.93;3.03;;;9.60;99.90;;;;;;5051102;28;20242;-59
2023/11/15 04:32:39;;;;;;;19.40;3.70;;;9.60;99.90;;;;;;5048229;28;20574;-59
2023/11/15 04:35:08;;;;;;;19.67;3.40;;;9.60;99.90;;;;;;5046882;28;20228;-59
2023/11/15 04:37:36;;;;;;;17.70;3.90;;;9.60;99.90;;;;;;5052017;28;20549;-59
2023/11/15 04:40:06;;;;;;;20.07;3.73;;;9.60;99.90;;;;;;5047863;28;20697;-59
2023/11/15 04:42:34;;;;;;;19.80;3.20;;;9.60;99.90;;;;;;5048362;28;20227;-59
2023/11/15 04:45:05;;;;;;;18.60;3.27;;;9.50;99.90;;;;;;5048684;28;20228;-59
2023/11/15 04:47:35;;;;;;;26.90;4.00;;;9.50;99.90;;;;;;5048245;28;20608;-59
2023/11/15 04:50:04;;;;;;;15.03;3.57;;;9.40;99.90;;;;;;5044860;28;20618;-58
2023/11/15 04:52:32;;;;;;;15.57;3.47;;;9.50;99.90;;;;;;5046384;28;20185;-59
2023/11/15 04:55:00;;;;;;;15.00;3.63;;;9.50;99.90;;;;;;5049560;28;20247;-59
2023/11/15 04:57:29;;;;;;;18.30;3.37;;;9.50;99.90;;;;;;5048610;28;20217;-59
2023/11/15 04:59:57;;;;;;;18.60;3.77;;;9.60;99.90;;;;;;5047712;28;20216;-59
2023/11/15 05:02:27;;;;;;;14.13;3.23;;;9.60;99.90;;;;;;5049412;28;20682;-59
2023/11/15 05:04:56;;;;;;;18.20;3.13;;;9.60;99.90;;;;;;5047598;28;20220;-58
2023/11/15 05:07:25;;;;;;;10.80;3.20;;;9.60;99.90;;;;;;5050545;28;20203;-59
2023/11/15 05:09:53;;;;;;;24.23;3.87;;;9.60;99.90;;;;;;5049080;28;20726;-59
2023/11/15 05:12:21;;;;;;;24.23;3.70;;;9.50;99.90;;;;;;5044985;28;20240;-59
2023/11/15 05:14:52;;;;;;;19.87;3.40;;;9.60;99.90;;;;;;5050513;28;20882;-59
2023/11/15 05:17:20;;;;;;;19.43;3.47;;;9.60;99.90;;;;;;5051076;28;20220;-59
2023/11/15 05:19:50;;;;;;;13.57;3.27;;;9.60;99.90;;;;;;5050112;28;20591;-58
2023/11/15 05:22:18;;;;;;;14.53;3.40;;;9.60;99.90;;;;;;5049804;28;20334;-59
2023/11/15 05:24:46;;;;;;;21.20;4.33;;;9.60;99.90;;;;;;5046240;28;20225;-59
2023/11/15 05:27:16;;;;;;;18.30;3.30;;;9.60;99.90;;;;;;5047588;28;20728;-59
2023/11/15 05:29:45;;;;;;;18.73;3.90;;;9.60;99.90;;;;;;5053189;28;20218;-59
2023/11/15 05:32:13;;;;;;;22.40;3.50;;;9.60;99.90;;;;;;5051332;28;20231;-59
2023/11/15 05:34:42;;;;;;;23.13;3.30;;;9.60;99.90;;;;;;5044751;28;20281;-59
2023/11/15 05:37:12;;;;;;;21.90;3.90;;;9.60;99.90;;;;;;5048076;28;20203;-59
2023/11/15 05:39:41;;;;;;;14.63;3.17;;;9.70;99.90;;;;;;5052827;28;20213;-59
2023/11/15 05:42:09;;;;;;;15.17;3.50;;;9.60;99.90;;;;;;5044281;28;20220;-59
2023/11/15 05:44:37;;;;;;;14.87;3.27;;;9.70;99.90;;;;;;5048954;28;20300;-59
2023/11/15 05:47:06;;;;;;;19.73;3.80;;;9.70;99.90;;;;;;5040888;28;20280;-58
2023/11/15 05:49:35;;;;;;;26.57;4.20;;;9.80;99.90;;;;;;5043233;28;20219;-58
2023/11/15 05:52:03;;;;;;;21.10;3.43;;;9.70;99.90;;;;;;5045027;28;20319;-59
2023/11/15 05:54:33;;;;;;;15.90;3.40;;;9.70;99.90;;;;;;5046554;28;20361;-59
2023/11/15 05:57:02;;;;;;;18.90;3.50;;;9.70;99.90;;;;;;5045956;28;20244;-59
2023/11/15 05:59:31;;;;;;;22.03;4.17;;;9.70;99.90;;;;;;5044986;28;20328;-59
2023/11/15 06:01:59;;;;;;;24.03;4.17;;;9.70;99.90;;;;;;5044175;28;20216;-59
2023/11/15 06:04:28;;;;;;;19.07;3.43;;;9.70;99.90;;;;;;5046091;28;20220;-59
2023/11/15 06:06:58;;;;;;;18.07;4.13;;;9.60;99.90;;;;;;5040655;28;20224;-59
2023/11/15 06:09:27;;;;;;;24.67;3.60;;;9.60;99.90;;;;;;5046033;28;20239;-59
2023/11/15 06:11:57;;;;;;;23.17;4.50;;;9.50;99.90;;;;;;5045769;28;20219;-59
2023/11/15 06:14:25;;;;;;;17.43;3.17;;;9.60;99.90;;;;;;5047233;28;20702;-59
2023/11/15 06:16:53;;;;;;;26.47;3.90;;;9.60;99.90;;;;;;5041228;28;20606;-58
2023/11/15 06:19:23;;;;;;;19.90;3.70;;;9.50;99.90;;;;;;5048401;28;20239;-58
2023/11/15 06:21:51;;;;;;;18.77;3.60;;;9.60;99.90;;;;;;5039319;28;20300;-58
2023/11/15 06:24:20;;;;;;;13.27;3.00;;;9.60;99.90;;;;;;5049552;28;20224;-58
2023/11/15 06:26:51;;;;;;;21.80;3.60;;;9.50;99.90;;;;;;5039952;28;20221;-58
2023/11/15 06:29:21;;;;;;;17.80;3.97;;;9.50;99.90;;;;;;5046952;28;20233;-58
2023/11/15 06:31:50;;;;;;;23.50;5.10;;;9.50;99.90;;;;;;5039245;28;20216;-58
2023/11/15 06:34:18;;;;;;;22.33;3.40;;;9.50;99.90;;;;;;5048796;28;20195;-58
2023/11/15 06:36:47;;;;;;;17.17;3.70;;;9.40;99.90;;;;;;5043898;28;20229;-59
2023/11/15 06:39:18;;;;;;;18.13;3.27;;;9.40;99.90;;;;;;5046648;28;20221;-58
2023/11/15 06:41:46;;;;;;;21.13;3.50;;;9.40;99.90;;;;;;5042633;28;20236;-58
2023/11/15 06:44:14;;;;;;;23.80;3.60;;;9.30;99.90;;;;;;5039622;28;20572;-58
2023/11/15 06:46:46;;;;;;;26.83;4.23;;;9.30;99.90;;;;;;5045054;28;20189;-58
2023/11/15 06:49:15;;;;;;;22.30;4.00;;;9.30;99.90;;;;;;5040036;28;20213;-58
2023/11/15 06:51:49;;;;;;;25.13;4.20;;;9.30;99.90;;;;;;5039730;28;20252;-58
2023/11/15 06:54:17;;;;;;;20.47;4.30;;;9.30;99.90;;;;;;5045489;28;20220;-58
2023/11/15 06:56:48;;;;;;;27.90;3.93;;;9.30;99.90;;;;;;5043174;28;20219;-58
2023/11/15 06:59:17;;;;;;;21.67;4.37;;;9.30;99.90;;;;;;5040042;28;20235;-58
2023/11/15 07:01:49;;;;;;;20.00;5.00;;;9.30;99.90;;;;;;5048798;28;20235;-58
2023/11/15 07:04:19;;;;;;;29.90;6.17;;;9.20;99.90;;;;;;5037582;28;20536;-59
2023/11/15 07:06:48;;;;;;;24.80;4.47;;;9.20;99.90;;;;;;5040602;28;20213;-58
2023/11/15 07:09:18;;;;;;;21.80;5.13;;;9.20;99.90;;;;;;5044017;28;20220;-58
2023/11/15 07:11:46;;;;;;;33.27;9.77;;;9.10;99.90;;;;;;5040134;28;20212;-58
2023/11/15 07:14:16;;;;;;;23.03;8.90;;;9.10;99.90;;;;;;5043380;28;20234;-57
2023/11/15 07:16:52;;;;;;;27.70;7.00;;;9.10;99.90;;;;;;5041283;28;20209;-58
2023/11/15 07:19:21;;;;;;;23.50;5.23;;;9.20;99.90;;;;;;5044437;28;20189;-58
2023/11/15 07:21:49;;;;;;;25.00;3.93;;;9.20;99.90;;;;;;5039488;28;20442;-58
2023/11/15 07:24:19;;;;;;;28.93;4.73;;;9.20;99.90;;;;;;5041672;28;20217;-58
2023/11/15 07:26:47;;;;;;;27.47;4.63;;;9.30;99.90;;;;;;5043452;28;20220;-57
2023/11/15 07:29:20;;;;;;;20.67;4.43;;;9.30;99.90;;;;;;5045312;28;20243;-58
2023/11/15 07:31:52;;;;;;;17.70;3.60;;;9.30;99.90;;;;;;5041876;28;20196;-58
2023/11/15 07:34:22;;;;;;;22.17;3.87;;;9.30;99.90;;;;;;5038051;28;20195;-58
2023/11/15 07:36:50;;;;;;;26.63;4.10;;;9.30;99.90;;;;;;5040456;28;20541;-57
2023/11/15 07:39:18;;;;;;;22.00;4.20;;;9.30;99.90;;;;;;5044200;28;20263;-58
2023/11/15 07:41:47;;;;;;;25.27;3.30;;;9.40;99.90;;;;;;5040503;28;20260;-59
2023/11/15 07:44:17;;;;;;;22.13;3.93;;;9.30;99.90;;;;;;5042536;28;20235;-58
2023/11/15 07:46:49;;;;;;;18.83;3.83;;;9.40;99.90;;;;;;5037289;28;20197;-58
2023/11/15 07:49:20;;;;;;;16.23;3.67;;;9.30;99.90;;;;;;5042366;28;20213;-59
2023/11/15 07:51:49;;;;;;;17.60;3.53;;;9.30;99.90;;;;;;5040547;28;20682;-58
2023/11/15 07:54:19;;;;;;;21.93;3.60;;;9.40;99.90;;;;;;5042243;28;20226;-58
2023/11/15 07:56:47;;;;;;;27.87;4.60;;;9.40;99.90;;;;;;5041936;28;20219;-58
2023/11/15 07:59:16;;;;;;;25.77;4.30;;;9.40;99.90;;;;;;5041987;28;20690;-58
2023/11/15 08:01:45;;;;;;;23.70;4.10;;;9.40;99.90;;;;;;5042894;28;20185;-58
2023/11/15 08:04:15;;;;;;;23.47;4.00;;;9.50;99.90;;;;;;5039983;28;20671;-58
2023/11/15 08:06:46;;;;;;;14.47;3.37;;;9.60;99.90;;;;;;5040840;28;20299;-59
2023/11/15 08:09:24;;;;;;;19.73;4.47;;;9.60;99.90;;;;;;5043414;28;20224;-58
2023/11/15 08:11:55;;;;;;;25.20;3.90;;;9.70;99.90;;;;;;5042583;28;20216;-58
2023/11/15 08:14:25;;;;;;;15.23;3.53;;;9.80;99.90;;;;;;5050146;28;20217;-58
2023/11/15 08:16:54;;;;;;;12.50;3.77;;;9.90;99.90;;;;;;5041540;28;20197;-58
2023/11/15 08:19:23;;;;;;;23.17;3.40;;;10.00;99.90;;;;;;5039318;28;20289;-59
2023/11/15 08:21:53;;;;;;;12.00;3.70;;;10.00;99.90;;;;;;5041375;28;20224;-58
2023/11/15 08:24:22;;;;;;;19.60;3.80;;;10.00;99.90;;;;;;5041534;28;20227;-58
2023/11/15 08:26:54;;;;;;;16.03;3.00;;;10.00;99.90;;;;;;5044831;28;20217;-58
2023/11/15 08:29:23;;;;;;;22.17;3.43;;;10.00;99.90;;;;;;5040745;28;20217;-58
2023/11/15 08:31:51;;;;;;;15.70;3.70;;;10.00;99.90;;;;;;5041674;28;20205;-59
2023/11/15 08:34:24;;;;;;;25.63;4.80;;;10.10;99.90;;;;;;5041943;28;20287;-58
2023/11/15 08:36:54;;;;;;;9.50;3.87;;;10.10;99.90;;;;;;5039044;28;20224;-59
2023/11/15 08:39:22;;;;;;;14.80;3.40;;;10.10;99.90;;;;;;5040372;28;20228;-58
2023/11/15 08:41:51;;;;;;;14.50;3.10;;;10.20;99.90;;;;;;5042732;28;20217;-58
2023/11/15 08:44:19;;;;;;;17.23;3.77;;;10.20;99.90;;;;;;5042638;28;20212;-58
2023/11/15 08:46:50;;;;;;;15.90;3.57;;;10.20;99.90;;;;;;5044236;28;20272;-58
2023/11/15 08:49:20;;;;;;;16.33;3.70;;;10.30;99.90;;;;;;5038248;28;20295;-58
2023/11/15 08:51:50;;;;;;;20.43;3.40;;;10.30;99.90;;;;;;5040798;28;20240;-58
2023/11/15 08:54:20;;;;;;;14.83;3.53;;;10.30;99.90;;;;;;5040879;28;20248;-58
2023/11/15 08:56:50;;;;;;;20.17;3.50;;;10.50;99.90;;;;;;5040571;28;20687;-58
2023/11/15 08:59:20;;;;;;;18.60;3.37;;;10.60;99.90;;;;;;5037360;28;20245;-59
2023/11/15 09:01:48;;;;;;;16.77;3.30;;;10.60;99.90;;;;;;5040504;28;20197;-59
2023/11/15 09:04:18;;;;;;;12.23;3.23;;;10.70;99.90;;;;;;5041888;28;20323;-59
2023/11/15 09:06:47;;;;;;;17.37;3.30;;;10.80;99.90;;;;;;5041429;28;20217;-59
2023/11/15 09:09:17;;;;;;;18.30;2.97;;;10.90;99.90;;;;;;5043646;28;20216;-59
2023/11/15 09:11:47;;;;;;;19.47;3.27;;;11.00;99.90;;;;;;5042826;28;20220;-59
2023/11/15 09:14:16;;;;;;;17.70;3.80;;;11.00;99.90;;;;;;5042531;28;20305;-58
2023/11/15 09:16:45;;;;;;;13.67;3.17;;;11.10;99.90;;;;;;5043982;28;20198;-59
2023/11/15 09:19:16;;;;;;;15.23;3.00;;;11.10;99.90;;;;;;5048670;28;20194;-59
2023/11/15 09:21:45;;;;;;;12.40;3.40;;;11.10;99.90;;;;;;5043423;28;20682;-59
2023/11/15 09:24:21;;;;;;;16.47;3.00;;;11.20;99.90;;;;;;5002324;28;20233;-59
2023/11/15 09:26:52;;;;;;;10.20;3.17;;;11.20;99.90;;;;;;5003646;28;20236;-59
2023/11/15 09:29:21;;;;;;;13.17;3.10;;;11.20;99.90;;;;;;5006829;28;20673;-59
2023/11/15 09:31:49;;;;;;;15.83;3.17;;;11.30;99.90;;;;;;5007974;28;20528;-59
2023/11/15 09:34:18;;;;;;;15.60;3.00;;;11.40;99.90;;;;;;5004968;28;20651;-59
2023/11/15 09:36:50;;;;;;;13.83;2.90;;;11.50;99.90;;;;;;5003625;28;20592;-59
2023/11/15 09:39:18;;;;;;;16.23;2.97;;;11.60;99.90;;;;;;5006123;28;20230;-59
2023/11/15 09:41:53;;;;;;;14.87;2.77;;;11.70;99.90;;;;;;5009179;28;20225;-59
2023/11/15 09:44:26;;;;;;;15.40;3.03;;;11.70;99.90;;;;;;5007579;28;20256;-59
2023/11/15 09:46:57;;;;;;;15.90;3.27;;;11.80;99.90;;;;;;5011633;28;20202;-59
2023/11/15 09:49:26;;;;;;;12.17;2.60;;;11.90;99.90;;;;;;5006431;28;20641;-58
2023/11/15 09:51:56;;;;;;;11.17;2.70;;;12.00;99.90;;;;;;5005670;28;20222;-58
2023/11/15 09:54:25;;;;;;;17.63;3.20;;;11.90;99.90;;;;;;5008413;28;20223;-59
2023/11/15 09:56:54;;;;;;;13.20;2.50;;;12.00;99.90;;;;;;5006733;28;20217;-59
2023/11/15 09:59:24;;;;;;;14.30;2.77;;;12.10;99.90;;;;;;5004265;28;20214;-58
2023/11/15 10:01:53;;;;;;;14.47;2.80;;;12.20;99.90;;;;;;5002018;28;20198;-59
2023/11/15 10:04:22;;;;;;;10.27;2.97;;;12.20;99.90;;;;;;5001947;28;20198;-59
2023/11/15 10:06:52;;;;;;;11.13;2.80;;;12.30;99.90;;;;;;5002811;28;20628;-59
2023/11/15 10:09:38;;;;;;;15.73;2.60;;;12.40;99.90;;;;;;5004786;28;20240;-59
2023/11/15 10:12:08;;;;;;;14.60;2.83;;;12.50;99.90;;;;;;5004798;28;20222;-59
2023/11/15 10:14:52;;;;;;;17.13;3.40;;;12.50;99.90;;;;;;5011641;28;20309;-59
2023/11/15 10:17:38;;;;;;;10.57;2.10;;;12.60;99.90;;;;;;5009089;28;20297;-59
2023/11/15 10:20:18;;;;;;;15.50;3.37;;;12.60;99.90;;;;;;5004322;28;20343;-59
2023/11/15 10:22:47;;;;;;;9.20;3.00;;;12.50;99.90;;;;;;5019866;28;20248;-59
2023/11/15 10:25:16;;;;;;;10.73;2.93;;;12.60;99.90;;;;;;5047276;28;20250;-59
2023/11/15 10:27:44;;;;;;;11.43;3.27;;;12.60;99.90;;;;;;5045847;28;20213;-59
2023/11/15 10:30:16;;;;;;;8.90;2.67;;;12.70;99.90;;;;;;5042440;28;20702;-59
2023/11/15 10:32:45;;;;;;;12.50;2.60;;;12.80;99.90;;;;;;5048271;28;20227;-59
2023/11/15 10:35:27;;;;;;;6.60;2.40;;;12.80;99.90;;;;;;5043647;28;20224;-59
2023/11/15 10:37:56;;;;;;;10.30;2.60;;;12.80;99.90;;;;;;5043014;28;20193;-59
2023/11/15 10:40:28;;;;;;;10.67;2.60;;;12.80;99.90;;;;;;5040360;28;20284;-59
2023/11/15 10:43:01;;;;;;;10.17;3.00;;;12.90;99.90;;;;;;5046068;28;20268;-58
2023/11/15 10:45:31;;;;;;;16.13;3.10;;;12.80;99.90;;;;;;5049502;28;20251;-58
2023/11/15 10:48:05;;;;;;;12.27;2.90;;;12.70;99.90;;;;;;5041398;28;20604;-59
2023/11/15 10:50:37;;;;;;;11.40;2.63;;;12.70;99.90;;;;;;5046177;28;20225;-60
2023/11/15 10:53:10;;;;;;;11.43;2.30;;;12.80;99.90;;;;;;5044799;28;20619;-59
2023/11/15 10:55:39;;;;;;;11.03;2.70;;;12.80;99.90;;;;;;5042103;28;20738;-59
2023/11/15 10:58:11;;;;;;;15.40;3.00;;;12.90;99.30;;;;;;5046412;28;20231;-59
2023/11/15 11:00:43;;;;;;;6.27;2.27;;;12.90;99.90;;;;;;5044549;28;20254;-59
2023/11/15 11:03:14;;;;;;;9.53;2.30;;;13.10;99.90;;;;;;5041218;28;20218;-59
2023/11/15 11:05:46;;;;;;;15.63;2.70;;;13.30;99.90;;;;;;5048123;28;20228;-59
2023/11/15 11:08:26;;;;;;;9.63;2.37;;;13.30;95.50;;;;;;5040673;28;20238;-59
2023/11/15 11:11:05;;;;;;;8.83;2.80;;;13.20;94.20;;;;;;5048655;28;20188;-58
2023/11/15 11:13:34;;;;;;;8.47;2.30;;;13.20;93.70;;;;;;5045491;28;20585;-59
2023/11/15 11:16:34;;;;;;;6.70;2.23;;;13.20;93.00;;;;;;5042391;28;20267;-59
2023/11/15 11:19:16;;;;;;;9.03;2.30;;;13.20;79.60;;;;;;5042450;28;20251;-59
2023/11/15 11:22:11;;;;;;;8.70;2.20;;;13.30;92.50;;;;;;5043739;28;20220;-59
2023/11/15 11:24:45;;;;;;;8.13;2.20;;;13.40;89.30;;;;;;5037365;28;20675;-59
2023/11/15 11:27:31;;;;;;;7.03;2.10;;;13.40;80.50;;;;;;5042095;28;20242;-59
2023/11/15 11:30:19;;;;;;;7.30;2.17;;;13.40;81.80;;;;;;5041445;28;20216;-59
2023/11/15 11:33:06;;;;;;;9.27;2.40;;;13.50;81.70;;;;;;5045586;28;20213;-59
2023/11/15 11:35:40;;;;;;;7.67;2.40;;;13.60;79.90;;;;;;5047563;28;20697;-59
2023/11/15 11:38:13;;;;;;;6.93;1.90;;;13.70;70.70;;;;;;5046401;28;20573;-59
2023/11/15 11:40:43;;;;;;;7.90;2.17;;;13.80;72.50;;;;;;5043875;28;20190;-59
2023/11/15 11:43:32;;;;;;;6.50;1.80;;;13.80;62.90;;;;;;5047404;28;20193;-59
2023/11/15 11:46:13;;;;;;;9.47;2.27;;;13.60;70.80;;;;;;5042854;28;20225;-60
2023/11/15 11:48:43;;;;;;;10.33;2.37;;;13.60;60.30;;;;;;5044756;28;20577;-59
2023/11/15 11:51:12;;;;;;;7.73;2.43;;;13.40;59.70;;;;;;5048182;28;20220;-59
2023/11/15 11:53:45;;;;;;;5.10;2.10;;;13.30;74.70;;;;;;5043698;28;20310;-59
2023/11/15 11:56:14;;;;;;;6.80;2.30;;;13.40;79.70;;;;;;5042964;28;20230;-59
2023/11/15 11:58:43;;;;;;;7.23;1.90;;;13.50;78.80;;;;;;5040436;28;20190;-59
2023/11/15 12:01:12;;;;;;;5.57;2.10;;;13.60;80.00;;;;;;5037217;28;20190;-60
2023/11/15 12:03:48;;;;;;;7.47;2.23;;;13.90;81.00;;;;;;5041823;28;20224;-59
2023/11/15 12:06:17;;;;;;;6.63;2.10;;;14.10;64.20;;;;;;5039718;28;20231;-60
2023/11/15 12:08:52;;;;;;;7.47;2.40;;;14.10;64.00;;;;;;5040429;28;20221;-59
2023/11/15 12:11:22;;;;;;;7.37;2.07;;;14.20;55.40;;;;;;5037407;28;20251;-59
2023/11/15 12:13:52;;;;;;;6.83;2.33;;;14.10;51.70;;;;;;5040881;28;20196;-59
2023/11/15 12:16:23;;;;;;;6.13;1.97;;;13.90;36.20;;;;;;5038872;28;20197;-59
2023/11/15 12:19:05;;;;;;;6.47;2.10;;;13.60;42.70;;;;;;5037675;28;20274;-59
2023/11/15 12:21:37;;;;;;;6.30;1.80;;;13.40;45.70;;;;;;5038648;28;20228;-59
2023/11/15 12:24:06;;;;;;;6.83;2.47;;;13.30;56.60;;;;;;5038641;28;21478;-59
2023/11/15 12:26:46;;;;;;;11.23;2.03;;;13.30;58.50;;;;;;5041535;28;20721;-59
2023/11/15 12:29:20;;;;;;;8.43;2.20;;;13.30;52.90;;;;;;5039914;28;20216;-59
2023/11/15 12:31:51;;;;;;;4.17;1.73;;;13.30;44.40;;;;;;5036318;28;20185;-59
2023/11/15 12:34:21;;;;;;;6.13;2.27;;;13.30;57.10;;;;;;5042482;28;20558;-59
2023/11/15 12:36:51;;;;;;;10.90;2.07;;;13.50;39.40;;;;;;5040974;28;20275;-59
2023/11/15 12:39:21;;;;;;;8.07;1.90;;;13.50;41.60;;;;;;5038363;28;20256;-60
2023/11/15 12:41:52;;;;;;;7.60;1.80;;;13.60;51.30;;;;;;5036327;28;21106;-59
2023/11/15 12:44:21;;;;;;;13.03;2.23;;;13.60;40.70;;;;;;5037559;28;20734;-59
2023/11/15 12:46:53;;;;;;;11.03;2.20;;;13.50;47.90;;;;;;5043403;28;20223;-58
2023/11/15 12:49:27;;;;;;;11.40;2.17;;;13.40;39.30;;;;;;5039803;28;20219;-59
2023/11/15 12:51:56;;;;;;;7.23;1.97;;;13.40;47.00;;;;;;5039977;28;20312;-59
2023/11/15 12:54:24;;;;;;;6.47;1.90;;;13.50;34.30;;;;;;5039782;28;20225;-59
2023/11/15 12:57:07;;;;;;;4.27;1.83;;;13.40;15.80;;;;;;5043414;28;20596;-58
2023/11/15 12:59:38;;;;;;;11.30;2.53;;;13.20;14.80;;;;;;5044551;28;20216;-59